createdAt,value
2018-12-01T00:00:06.421Z,8.54
2018-12-01T00:01:06.437Z,8.49
2018-12-01T00:02:06.423Z,8.43
2018-12-01T00:03:06.432Z,8.43
2018-12-01T00:04:06.446Z,8.40
2018-12-01T00:05:06.450Z,8.42
2018-12-01T00:06:06.438Z,8.37
2018-12-01T00:07:06.444Z,8.34
2018-12-01T00:08:06.447Z,8.31
2018-12-01T00:09:06.455Z,8.31
2018-12-01T00:10:06.462Z,8.36
2018-12-01T00:11:06.470Z,8.32
2018-12-01T00:12:06.473Z,8.36
2018-12-01T00:13:06.475Z,8.37
2018-12-01T00:14:06.477Z,8.36
2018-12-01T00:15:06.484Z,8.36
2018-12-01T00:16:06.488Z,8.27
2018-12-01T00:17:06.491Z,8.24
2018-12-01T00:18:06.491Z,8.28
2018-12-01T00:19:06.501Z,8.31
2018-12-01T00:20:06.502Z,8.24
2018-12-01T00:21:06.892Z,8.27
2018-12-01T00:22:06.719Z,8.27
2018-12-01T00:23:06.528Z,8.13
2018-12-01T00:24:06.528Z,8.22
2018-12-01T00:25:06.527Z,8.18
2018-12-01T00:26:06.529Z,8.17
2018-12-01T00:27:06.537Z,8.12
2018-12-01T00:28:06.601Z,8.18
2018-12-01T00:29:06.542Z,8.14
2018-12-01T00:30:06.552Z,8.13
2018-12-01T00:31:06.550Z,8.12
2018-12-01T00:32:06.544Z,8.13
2018-12-01T00:33:06.550Z,8.18
2018-12-01T00:34:06.615Z,8.17
2018-12-01T00:35:06.557Z,8.14
2018-12-01T00:36:06.565Z,8.13
2018-12-01T00:37:06.597Z,8.14
2018-12-01T00:38:06.676Z,8.13
2018-12-01T00:39:06.580Z,8.13
2018-12-01T00:40:06.578Z,8.20
2018-12-01T00:41:06.588Z,8.21
2018-12-01T00:42:06.599Z,8.17
2018-12-01T00:43:06.591Z,8.13
2018-12-01T00:44:06.608Z,8.17
2018-12-01T00:45:06.618Z,8.14
2018-12-01T00:46:06.614Z,8.06
2018-12-01T00:47:06.606Z,8.09
2018-12-01T00:48:06.641Z,8.06
2018-12-01T00:49:06.626Z,8.13
2018-12-01T00:50:06.631Z,8.12
2018-12-01T00:51:06.697Z,8.13
2018-12-01T00:52:06.626Z,8.14
2018-12-01T00:53:06.646Z,8.12
2018-12-01T00:54:06.646Z,8.21
2018-12-01T00:55:06.648Z,8.18
2018-12-01T00:56:06.651Z,8.18
2018-12-01T00:57:06.666Z,8.13
2018-12-01T00:58:06.789Z,8.17
2018-12-01T00:59:06.676Z,8.22
2018-12-01T01:00:06.670Z,8.21
2018-12-01T01:01:06.671Z,8.14
2018-12-01T01:02:06.676Z,8.17
2018-12-01T01:03:06.688Z,8.13
2018-12-01T01:04:06.686Z,8.14
2018-12-01T01:05:06.685Z,8.20
2018-12-01T01:06:06.695Z,8.12
2018-12-01T01:07:06.702Z,8.17
2018-12-01T01:08:06.688Z,8.12
2018-12-01T01:09:06.703Z,8.09
2018-12-01T01:10:06.703Z,8.20
2018-12-01T01:11:06.711Z,8.10
2018-12-01T01:12:06.710Z,8.07
2018-12-01T01:13:06.713Z,8.14
2018-12-01T01:14:06.713Z,8.00
2018-12-01T01:15:06.729Z,8.03
2018-12-01T01:16:06.741Z,8.06
2018-12-01T01:17:06.743Z,8.07
2018-12-01T01:18:06.739Z,8.03
2018-12-01T01:19:06.743Z,8.03
2018-12-01T01:20:06.754Z,8.00
2018-12-01T01:21:06.758Z,8.04
2018-12-01T01:22:06.761Z,7.94
2018-12-01T01:23:06.758Z,7.91
2018-12-01T01:24:06.762Z,7.89
2018-12-01T01:25:06.773Z,7.89
2018-12-01T01:26:06.777Z,7.94
2018-12-01T01:27:06.782Z,7.85
2018-12-01T01:28:06.780Z,7.86
2018-12-01T01:29:06.791Z,7.84
2018-12-01T01:30:06.794Z,7.85
2018-12-01T01:31:06.797Z,7.95
2018-12-01T01:32:06.800Z,7.89
2018-12-01T01:33:06.797Z,7.95
2018-12-01T01:34:06.807Z,7.86
2018-12-01T01:35:06.814Z,7.92
2018-12-01T01:36:06.811Z,7.89
2018-12-01T01:37:06.814Z,7.88
2018-12-01T01:38:06.821Z,7.89
2018-12-01T01:39:06.818Z,7.91
2018-12-01T01:40:06.837Z,7.85
2018-12-01T01:41:06.823Z,7.85
2018-12-01T01:42:06.833Z,7.89
2018-12-01T01:43:06.838Z,7.86
2018-12-01T01:44:06.836Z,7.84
2018-12-01T01:45:06.885Z,7.86
2018-12-01T01:46:06.866Z,7.77
2018-12-01T01:47:06.850Z,7.85
2018-12-01T01:48:06.853Z,7.69
2018-12-01T01:49:06.862Z,7.73
2018-12-01T01:50:06.862Z,7.82
2018-12-01T01:51:06.867Z,7.71
2018-12-01T01:52:06.875Z,7.69
2018-12-01T01:53:06.888Z,7.71
2018-12-01T01:54:06.897Z,7.73
2018-12-01T01:55:06.892Z,7.69
2018-12-01T01:56:06.886Z,7.66
2018-12-01T01:57:06.889Z,7.71
2018-12-01T01:58:06.898Z,7.67
2018-12-01T01:59:06.902Z,7.70
2018-12-01T02:00:06.898Z,7.66
2018-12-01T02:01:06.903Z,7.69
2018-12-01T02:02:06.914Z,7.62
2018-12-01T02:03:06.920Z,7.63
2018-12-01T02:04:06.924Z,7.58
2018-12-01T02:05:06.928Z,7.60
2018-12-01T02:06:06.935Z,7.63
2018-12-01T02:07:06.953Z,7.62
2018-12-01T02:08:06.928Z,7.60
2018-12-01T02:09:06.957Z,7.55
2018-12-01T02:10:06.949Z,7.60
2018-12-01T02:11:06.949Z,7.51
2018-12-01T02:12:06.944Z,7.51
2018-12-01T02:13:06.942Z,7.47
2018-12-01T02:14:06.960Z,7.50
2018-12-01T02:15:06.966Z,7.45
2018-12-01T02:16:06.965Z,7.41
2018-12-01T02:17:06.966Z,7.48
2018-12-01T02:18:06.976Z,7.48
2018-12-01T02:19:06.971Z,7.45
2018-12-01T02:20:06.983Z,7.45
2018-12-01T02:21:06.992Z,7.45
2018-12-01T02:22:06.990Z,7.50
2018-12-01T02:23:07.006Z,7.45
2018-12-01T02:24:06.999Z,7.41
2018-12-01T02:25:07.011Z,7.45
2018-12-01T02:26:07.006Z,7.42
2018-12-01T02:27:07.004Z,7.37
2018-12-01T02:28:07.014Z,7.41
2018-12-01T02:29:07.013Z,7.42
2018-12-01T02:30:07.050Z,7.42
2018-12-01T02:31:07.039Z,7.41
2018-12-01T02:32:07.028Z,7.37
2018-12-01T02:33:07.031Z,7.48
2018-12-01T02:34:07.036Z,7.51
2018-12-01T02:35:07.047Z,7.42
2018-12-01T02:36:07.047Z,7.42
2018-12-01T02:37:07.050Z,7.45
2018-12-01T02:38:07.048Z,7.48
2018-12-01T02:39:07.051Z,7.41
2018-12-01T02:40:07.059Z,7.48
2018-12-01T02:41:07.058Z,7.34
2018-12-01T02:42:07.068Z,7.30
2018-12-01T02:43:07.066Z,7.45
2018-12-01T02:44:07.067Z,7.42
2018-12-01T02:45:07.081Z,7.32
2018-12-01T02:46:07.077Z,7.34
2018-12-01T02:47:07.079Z,7.39
2018-12-01T02:48:07.079Z,7.30
2018-12-01T02:49:07.087Z,7.36
2018-12-01T02:50:07.090Z,7.30
2018-12-01T02:51:07.094Z,7.34
2018-12-01T02:52:07.119Z,7.32
2018-12-01T02:53:07.104Z,7.34
2018-12-01T02:54:07.108Z,7.34
2018-12-01T02:55:07.112Z,7.33
2018-12-01T02:56:07.149Z,7.26
2018-12-01T02:57:07.117Z,7.23
2018-12-01T02:58:07.122Z,7.24
2018-12-01T02:59:07.127Z,7.29
2018-12-01T03:00:07.133Z,7.27
2018-12-01T03:01:07.136Z,7.26
2018-12-01T03:02:07.138Z,7.26
2018-12-01T03:03:07.138Z,7.23
2018-12-01T03:04:07.148Z,7.23
2018-12-01T03:05:07.143Z,7.24
2018-12-01T03:06:07.186Z,7.24
2018-12-01T03:07:07.152Z,7.21
2018-12-01T03:08:07.153Z,7.24
2018-12-01T03:09:07.162Z,7.24
2018-12-01T03:10:07.164Z,7.29
2018-12-01T03:11:07.167Z,7.23
2018-12-01T03:12:07.170Z,7.21
2018-12-01T03:13:07.166Z,7.19
2018-12-01T03:14:07.178Z,7.24
2018-12-01T03:15:07.194Z,7.23
2018-12-01T03:16:07.184Z,7.26
2018-12-01T03:17:07.181Z,7.26
2018-12-01T03:18:07.199Z,7.19
2018-12-01T03:19:07.190Z,7.24
2018-12-01T03:20:07.200Z,7.16
2018-12-01T03:21:07.194Z,7.19
2018-12-01T03:22:07.216Z,7.21
2018-12-01T03:23:07.203Z,7.23
2018-12-01T03:24:07.204Z,7.18
2018-12-01T03:25:07.225Z,7.16
2018-12-01T03:26:07.224Z,7.21
2018-12-01T03:27:07.226Z,7.18
2018-12-01T03:28:07.225Z,7.12
2018-12-01T03:29:07.232Z,7.21
2018-12-01T03:31:07.241Z,7.05
2018-12-01T03:32:07.239Z,7.14
2018-12-01T03:33:07.244Z,7.11
2018-12-01T03:34:07.254Z,7.11
2018-12-01T03:35:07.261Z,7.12
2018-12-01T03:36:07.257Z,7.14
2018-12-01T03:37:07.255Z,7.08
2018-12-01T03:38:07.256Z,7.12
2018-12-01T03:39:07.275Z,7.12
2018-12-01T03:40:07.273Z,7.09
2018-12-01T03:41:07.275Z,7.08
2018-12-01T03:42:07.274Z,7.11
2018-12-01T03:43:07.276Z,7.11
2018-12-01T03:44:07.281Z,7.14
2018-12-01T03:45:07.289Z,7.05
2018-12-01T03:46:07.324Z,7.08
2018-12-01T03:47:07.289Z,7.07
2018-12-01T03:48:07.297Z,7.14
2018-12-01T03:49:07.295Z,7.11
2018-12-01T03:50:07.300Z,7.12
2018-12-01T03:51:07.305Z,7.08
2018-12-01T03:52:07.311Z,7.09
2018-12-01T03:53:07.323Z,7.07
2018-12-01T03:54:07.318Z,7.01
2018-12-01T03:55:07.329Z,7.09
2018-12-01T03:56:07.326Z,7.07
2018-12-01T03:57:07.325Z,7.05
2018-12-01T03:58:07.323Z,7.11
2018-12-01T03:59:07.343Z,7.11
2018-12-01T04:00:07.336Z,7.08
2018-12-01T04:01:07.331Z,7.05
2018-12-01T04:02:07.347Z,7.09
2018-12-01T04:03:07.343Z,7.11
2018-12-01T04:04:07.353Z,7.01
2018-12-01T04:05:07.356Z,7.08
2018-12-01T04:06:07.357Z,7.15
2018-12-01T04:07:07.362Z,7.04
2018-12-01T04:08:07.358Z,7.08
2018-12-01T04:09:07.366Z,7.14
2018-12-01T04:10:07.374Z,7.07
2018-12-01T04:11:07.378Z,7.07
2018-12-01T04:12:07.373Z,7.07
2018-12-01T04:13:07.378Z,7.04
2018-12-01T04:14:07.379Z,7.09
2018-12-01T04:15:07.385Z,7.08
2018-12-01T04:16:07.390Z,7.16
2018-12-01T04:17:07.436Z,7.07
2018-12-01T04:18:07.399Z,7.12
2018-12-01T04:19:07.406Z,7.04
2018-12-01T04:20:07.402Z,7.11
2018-12-01T04:21:07.407Z,7.08
2018-12-01T04:22:07.410Z,7.08
2018-12-01T04:23:07.418Z,7.09
2018-12-01T04:24:07.424Z,7.07
2018-12-01T04:25:07.419Z,7.16
2018-12-01T04:26:07.419Z,7.18
2018-12-01T04:27:07.430Z,7.15
2018-12-01T04:28:07.431Z,7.26
2018-12-01T04:30:07.447Z,7.14
2018-12-01T04:31:07.448Z,7.21
2018-12-01T04:32:07.442Z,7.24
2018-12-01T04:33:07.442Z,7.21
2018-12-01T04:34:07.454Z,7.21
2018-12-01T04:35:07.456Z,7.24
2018-12-01T04:36:07.466Z,7.21
2018-12-01T04:37:07.465Z,7.19
2018-12-01T04:38:07.463Z,7.27
2018-12-01T04:39:07.469Z,7.29
2018-12-01T04:40:07.482Z,7.32
2018-12-01T04:41:07.482Z,7.30
2018-12-01T04:42:07.479Z,7.41
2018-12-01T04:43:07.476Z,7.42
2018-12-01T04:44:07.482Z,7.37
2018-12-01T04:45:07.495Z,7.37
2018-12-01T04:46:07.491Z,7.34
2018-12-01T04:47:07.494Z,7.37
2018-12-01T04:48:07.501Z,7.32
2018-12-01T04:49:07.506Z,7.39
2018-12-01T04:50:07.507Z,7.33
2018-12-01T04:51:07.517Z,7.41
2018-12-01T04:52:07.503Z,7.48
2018-12-01T04:53:07.514Z,7.45
2018-12-01T04:54:07.524Z,7.37
2018-12-01T04:55:07.530Z,7.50
2018-12-01T04:57:07.535Z,7.45
2018-12-01T04:58:07.537Z,7.54
2018-12-01T04:59:07.539Z,7.45
2018-12-01T05:00:07.543Z,7.47
2018-12-01T05:01:07.551Z,7.50
2018-12-01T05:02:07.548Z,7.51
2018-12-01T05:03:07.554Z,7.52
2018-12-01T05:04:07.563Z,7.51
2018-12-01T05:05:07.561Z,7.51
2018-12-01T05:06:07.563Z,7.62
2018-12-01T05:07:07.565Z,7.63
2018-12-01T05:08:07.570Z,7.52
2018-12-01T05:09:07.575Z,7.58
2018-12-01T05:10:07.573Z,7.52
2018-12-01T05:11:07.581Z,7.52
2018-12-01T05:12:07.582Z,7.55
2018-12-01T05:13:07.590Z,7.54
2018-12-01T05:14:07.617Z,7.51
2018-12-01T05:15:07.595Z,7.50
2018-12-01T05:16:07.596Z,7.48
2018-12-01T05:17:07.607Z,7.45
2018-12-01T05:18:07.608Z,7.50
2018-12-01T05:19:07.611Z,7.50
2018-12-01T05:20:07.616Z,7.51
2018-12-01T05:21:07.624Z,7.57
2018-12-01T05:22:07.655Z,7.48
2018-12-01T05:23:07.626Z,7.55
2018-12-01T05:24:07.634Z,7.45
2018-12-01T05:25:07.638Z,7.51
2018-12-01T05:26:07.642Z,7.51
2018-12-01T05:27:07.648Z,7.52
2018-12-01T05:28:07.645Z,7.48
2018-12-01T05:29:07.650Z,7.45
2018-12-01T05:30:07.653Z,7.44
2018-12-01T05:31:07.661Z,7.44
2018-12-01T05:32:07.665Z,7.45
2018-12-01T05:33:07.661Z,7.45
2018-12-01T05:34:07.667Z,7.48
2018-12-01T05:35:07.672Z,7.42
2018-12-01T05:36:07.675Z,7.45
2018-12-01T05:37:07.680Z,7.47
2018-12-01T05:38:07.682Z,7.48
2018-12-01T05:39:07.688Z,7.42
2018-12-01T05:40:07.686Z,7.48
2018-12-01T05:41:07.685Z,7.45
2018-12-01T05:42:07.692Z,7.50
2018-12-01T05:43:07.702Z,7.55
2018-12-01T05:44:07.700Z,7.54
2018-12-01T05:45:07.704Z,7.58
2018-12-01T05:46:07.709Z,7.62
2018-12-01T05:47:07.712Z,7.54
2018-12-01T05:48:07.714Z,7.62
2018-12-01T05:49:07.724Z,7.63
2018-12-01T05:50:07.732Z,7.60
2018-12-01T05:51:07.730Z,7.67
2018-12-01T05:52:07.744Z,7.63
2018-12-01T05:53:07.742Z,7.62
2018-12-01T05:54:07.740Z,7.69
2018-12-01T05:55:07.743Z,7.71
2018-12-01T05:56:07.747Z,7.73
2018-12-01T05:58:07.751Z,7.69
2018-12-01T05:59:07.759Z,7.73
2018-12-01T06:00:07.760Z,7.74
2018-12-01T06:01:07.774Z,7.76
2018-12-01T06:02:07.783Z,7.81
2018-12-01T06:03:07.773Z,7.76
2018-12-01T06:04:07.779Z,7.81
2018-12-01T06:05:07.794Z,7.67
2018-12-01T06:06:07.788Z,7.81
2018-12-01T06:07:07.792Z,7.79
2018-12-01T06:08:07.798Z,7.82
2018-12-01T06:09:07.793Z,7.85
2018-12-01T06:10:07.802Z,7.76
2018-12-01T06:11:07.809Z,7.71
2018-12-01T06:12:07.801Z,7.77
2018-12-01T06:13:07.807Z,7.82
2018-12-01T06:14:07.815Z,7.85
2018-12-01T06:15:07.820Z,7.81
2018-12-01T06:16:07.825Z,7.76
2018-12-01T06:17:07.824Z,7.76
2018-12-01T06:18:07.825Z,7.70
2018-12-01T06:19:07.833Z,7.91
2018-12-01T06:20:07.842Z,7.76
2018-12-01T06:21:07.844Z,7.85
2018-12-01T06:22:07.848Z,7.79
2018-12-01T06:23:07.851Z,7.88
2018-12-01T06:24:07.861Z,7.77
2018-12-01T06:25:07.863Z,7.79
2018-12-01T06:26:07.863Z,7.67
2018-12-01T06:27:07.868Z,7.79
2018-12-01T06:28:07.871Z,7.79
2018-12-01T06:29:07.873Z,7.82
2018-12-01T06:30:07.890Z,7.89
2018-12-01T06:31:07.885Z,7.88
2018-12-01T06:32:07.885Z,7.84
2018-12-01T06:33:07.889Z,7.84
2018-12-01T06:34:07.900Z,7.74
2018-12-01T06:35:07.894Z,7.81
2018-12-01T06:36:07.899Z,7.82
2018-12-01T06:37:07.922Z,7.85
2018-12-01T06:38:07.910Z,7.79
2018-12-01T06:39:07.914Z,7.74
2018-12-01T06:40:07.923Z,7.79
2018-12-01T06:41:07.911Z,7.88
2018-12-01T06:42:07.922Z,7.74
2018-12-01T06:43:07.930Z,7.85
2018-12-01T06:44:07.933Z,7.84
2018-12-01T06:45:07.936Z,7.94
2018-12-01T06:46:07.949Z,7.91
2018-12-01T06:47:07.941Z,7.85
2018-12-01T06:48:07.946Z,7.92
2018-12-01T06:49:07.947Z,7.86
2018-12-01T06:50:07.952Z,7.91
2018-12-01T06:52:07.959Z,7.88
2018-12-01T06:53:07.966Z,7.89
2018-12-01T06:54:07.974Z,7.94
2018-12-01T06:55:07.980Z,7.91
2018-12-01T06:56:07.974Z,7.95
2018-12-01T06:57:08.011Z,7.84
2018-12-01T06:58:07.991Z,7.86
2018-12-01T06:59:07.997Z,7.96
2018-12-01T07:00:07.996Z,7.84
2018-12-01T07:01:07.994Z,7.84
2018-12-01T07:02:08.007Z,7.86
2018-12-01T07:03:08.003Z,7.92
2018-12-01T07:04:08.014Z,7.96
2018-12-01T07:05:08.028Z,8.02
2018-12-01T07:06:08.025Z,7.95
2018-12-01T07:07:08.030Z,7.94
2018-12-01T07:08:08.028Z,7.85
2018-12-01T07:09:08.039Z,7.95
2018-12-01T07:10:08.035Z,7.95
2018-12-01T07:11:08.035Z,7.89
2018-12-01T07:12:08.044Z,7.91
2018-12-01T07:13:08.045Z,7.94
2018-12-01T07:14:08.043Z,7.88
2018-12-01T07:15:08.060Z,7.91
2018-12-01T07:16:08.057Z,8.03
2018-12-01T07:17:08.062Z,8.00
2018-12-01T07:18:08.058Z,8.03
2018-12-01T07:19:08.067Z,8.04
2018-12-01T07:20:08.069Z,8.00
2018-12-01T07:21:08.090Z,8.00
2018-12-01T07:22:08.085Z,7.99
2018-12-01T07:23:08.087Z,8.03
2018-12-01T07:24:08.093Z,8.06
2018-12-01T07:25:08.089Z,8.02
2018-12-01T07:26:08.094Z,8.03
2018-12-01T07:27:08.101Z,8.06
2018-12-01T07:28:08.113Z,8.09
2018-12-01T07:29:08.125Z,8.04
2018-12-01T07:30:08.129Z,8.04
2018-12-01T07:31:08.127Z,8.07
2018-12-01T07:32:08.127Z,8.12
2018-12-01T07:33:08.121Z,8.03
2018-12-01T07:35:08.149Z,8.02
2018-12-01T07:36:08.145Z,8.07
2018-12-01T07:37:08.140Z,8.06
2018-12-01T07:38:08.145Z,8.14
2018-12-01T07:39:08.158Z,8.10
2018-12-01T07:40:08.166Z,8.03
2018-12-01T07:41:08.155Z,8.13
2018-12-01T07:42:08.160Z,8.09
2018-12-01T07:43:08.167Z,8.14
2018-12-01T07:44:08.168Z,8.18
2018-12-01T07:45:08.178Z,8.13
2018-12-01T07:46:08.183Z,8.14
2018-12-01T07:47:08.190Z,8.20
2018-12-01T07:48:08.189Z,8.13
2018-12-01T07:49:08.182Z,8.18
2018-12-01T07:50:08.194Z,8.14
2018-12-01T07:51:08.192Z,8.21
2018-12-01T07:52:08.202Z,8.09
2018-12-01T07:53:08.205Z,8.24
2018-12-01T07:54:08.210Z,8.24
2018-12-01T07:55:08.215Z,8.31
2018-12-01T07:56:08.219Z,8.32
2018-12-01T07:57:08.231Z,8.39
2018-12-01T07:58:08.235Z,8.37
2018-12-01T07:59:08.233Z,8.46
2018-12-01T08:01:08.239Z,8.42
2018-12-01T08:02:08.251Z,8.47
2018-12-01T08:03:08.257Z,8.49
2018-12-01T08:05:08.267Z,8.39
2018-12-01T08:06:08.270Z,8.40
2018-12-01T08:07:08.292Z,8.37
2018-12-01T08:08:08.273Z,8.39
2018-12-01T08:09:08.282Z,8.46
2018-12-01T08:10:08.294Z,8.43
2018-12-01T08:11:08.281Z,8.49
2018-12-01T08:12:08.294Z,8.47
2018-12-01T08:13:08.303Z,8.58
2018-12-01T08:14:08.307Z,8.43
2018-12-01T08:15:08.320Z,8.55
2018-12-01T08:16:08.315Z,8.63
2018-12-01T08:17:08.316Z,8.60
2018-12-01T08:18:08.321Z,8.54
2018-12-01T08:20:08.330Z,8.61
2018-12-01T08:21:08.337Z,8.61
2018-12-01T08:23:08.352Z,8.61
2018-12-01T08:24:08.350Z,8.65
2018-12-01T08:25:08.360Z,8.64
2018-12-01T08:26:08.360Z,8.63
2018-12-01T08:27:08.372Z,8.70
2018-12-01T08:28:08.862Z,8.75
2018-12-01T08:29:08.378Z,8.67
2018-12-01T08:30:08.390Z,8.63
2018-12-01T08:31:08.379Z,8.71
2018-12-01T08:32:08.384Z,8.67
2018-12-01T08:33:08.385Z,8.76
2018-12-01T08:34:08.392Z,8.67
2018-12-01T08:36:08.404Z,8.67
2018-12-01T08:37:08.414Z,8.76
2018-12-01T08:38:08.415Z,8.67
2018-12-01T08:39:08.418Z,8.75
2018-12-01T08:40:09.343Z,8.79
2018-12-01T08:41:08.427Z,8.75
2018-12-01T08:42:08.432Z,8.80
2018-12-01T08:43:08.443Z,8.80
2018-12-01T08:44:08.442Z,8.79
2018-12-01T08:45:08.450Z,8.79
2018-12-01T08:46:08.448Z,8.85
2018-12-01T08:47:08.447Z,8.86
2018-12-01T08:48:08.463Z,8.85
2018-12-01T08:49:08.471Z,8.86
2018-12-01T08:50:08.471Z,8.93
2018-12-01T08:52:08.481Z,8.86
2018-12-01T08:53:08.487Z,8.85
2018-12-01T08:54:08.489Z,8.89
2018-12-01T08:55:08.518Z,9.06
2018-12-01T08:56:08.505Z,9.01
2018-12-01T08:57:08.584Z,9.13
2018-12-01T08:58:08.514Z,9.13
2018-12-01T08:59:08.522Z,9.01
2018-12-01T09:00:08.524Z,9.08
2018-12-01T09:01:08.529Z,9.15
2018-12-01T09:02:08.532Z,9.17
2018-12-01T09:03:08.548Z,9.30
2018-12-01T09:04:08.547Z,9.27
2018-12-01T09:05:08.558Z,9.30
2018-12-01T09:06:08.550Z,9.27
2018-12-01T09:07:08.556Z,9.34
2018-12-01T09:08:08.566Z,9.34
2018-12-01T09:09:08.810Z,9.32
2018-12-01T09:10:08.577Z,9.41
2018-12-01T09:11:08.579Z,9.35
2018-12-01T09:12:08.588Z,9.49
2018-12-01T09:13:08.587Z,9.34
2018-12-01T09:14:08.603Z,9.44
2018-12-01T09:15:08.601Z,9.35
2018-12-01T09:16:08.829Z,9.49
2018-12-01T09:17:08.616Z,9.52
2018-12-01T09:19:08.873Z,9.42
2018-12-01T09:20:08.628Z,9.59
2018-12-01T09:21:08.643Z,9.60
2018-12-01T09:22:09.734Z,9.53
2018-12-01T09:23:08.656Z,9.52
2018-12-01T09:24:08.745Z,9.62
2018-12-01T09:25:08.667Z,9.59
2018-12-01T09:26:08.668Z,9.67
2018-12-01T09:27:08.688Z,9.56
2018-12-01T09:28:08.681Z,9.58
2018-12-01T09:29:08.784Z,9.62
2018-12-01T09:30:08.696Z,9.59
2018-12-01T09:31:08.704Z,9.55
2018-12-01T09:32:08.754Z,9.63
2018-12-01T09:33:08.719Z,9.78
2018-12-01T09:34:08.723Z,9.80
2018-12-01T09:35:08.725Z,9.73
2018-12-01T09:36:08.768Z,9.75
2018-12-01T09:37:08.740Z,9.68
2018-12-01T09:38:08.746Z,9.68
2018-12-01T09:39:09.446Z,9.74
2018-12-01T09:40:08.760Z,9.73
2018-12-01T09:41:08.769Z,9.74
2018-12-01T09:42:08.779Z,9.88
2018-12-01T09:43:08.889Z,9.88
2018-12-01T09:44:08.789Z,9.80
2018-12-01T09:45:08.794Z,9.89
2018-12-01T09:46:08.804Z,9.88
2018-12-01T09:47:08.811Z,9.93
2018-12-01T09:48:08.807Z,9.88
2018-12-01T09:49:08.821Z,9.95
2018-12-01T09:50:08.823Z,9.98
2018-12-01T09:51:08.855Z,9.95
2018-12-01T09:52:08.839Z,9.88
2018-12-01T09:53:08.845Z,9.86
2018-12-01T09:54:08.861Z,9.89
2018-12-01T09:55:08.863Z,9.85
2018-12-01T09:56:08.865Z,9.91
2018-12-01T09:57:08.876Z,9.86
2018-12-01T09:58:08.883Z,9.77
2018-12-01T09:59:08.890Z,9.96
2018-12-01T10:00:08.895Z,9.98
2018-12-01T10:01:08.904Z,9.98
2018-12-01T10:02:08.902Z,9.93
2018-12-01T10:03:08.931Z,10.06
2018-12-01T10:04:08.943Z,10.16
2018-12-01T10:05:08.932Z,10.18
2018-12-01T10:06:08.928Z,10.25
2018-12-01T10:07:08.953Z,10.26
2018-12-01T10:08:08.943Z,10.25
2018-12-01T10:09:08.973Z,10.26
2018-12-01T10:10:08.959Z,10.38
2018-12-01T10:11:08.972Z,10.39
2018-12-01T10:12:08.967Z,10.18
2018-12-01T10:13:08.982Z,10.29
2018-12-01T10:14:08.989Z,10.26
2018-12-01T10:15:08.993Z,10.28
2018-12-01T10:16:09.002Z,10.32
2018-12-01T10:17:09.013Z,10.34
2018-12-01T10:18:09.018Z,10.26
2018-12-01T10:19:10.064Z,10.22
2018-12-01T10:20:09.031Z,10.18
2018-12-01T10:21:09.039Z,10.14
2018-12-01T10:22:09.053Z,10.20
2018-12-01T10:23:09.053Z,10.26
2018-12-01T10:24:09.061Z,10.25
2018-12-01T10:25:09.064Z,10.13
2018-12-01T10:26:09.075Z,10.20
2018-12-01T10:27:09.077Z,10.28
2018-12-01T10:28:09.087Z,10.29
2018-12-01T10:29:09.096Z,10.29
2018-12-01T10:30:09.101Z,10.29
2018-12-01T10:31:09.109Z,10.36
2018-12-01T10:32:09.111Z,10.44
2018-12-01T10:33:09.114Z,10.51
2018-12-01T10:34:09.134Z,10.49
2018-12-01T10:35:09.132Z,10.47
2018-12-01T10:36:09.138Z,10.57
2018-12-01T10:37:09.141Z,10.51
2018-12-01T10:38:09.145Z,10.60
2018-12-01T10:39:09.155Z,10.58
2018-12-01T10:40:09.151Z,10.62
2018-12-01T10:41:09.166Z,10.47
2018-12-01T10:42:09.173Z,10.57
2018-12-01T10:43:09.179Z,10.73
2018-12-01T10:44:09.195Z,10.66
2018-12-01T10:45:09.191Z,10.55
2018-12-01T10:46:09.203Z,10.66
2018-12-01T10:47:09.207Z,10.62
2018-12-01T10:48:09.207Z,10.65
2018-12-01T10:49:09.220Z,10.68
2018-12-01T10:50:09.221Z,10.62
2018-12-01T10:51:09.237Z,10.57
2018-12-01T10:52:09.242Z,10.58
2018-12-01T10:54:09.251Z,10.51
2018-12-01T10:55:09.256Z,10.69
2018-12-01T10:56:09.271Z,10.81
2018-12-01T10:57:09.270Z,10.86
2018-12-01T10:58:09.297Z,10.91
2018-12-01T11:00:09.296Z,11.02
2018-12-01T11:01:09.309Z,10.98
2018-12-01T11:02:09.307Z,11.02
2018-12-01T11:03:09.316Z,11.02
2018-12-01T11:04:09.316Z,11.09
2018-12-01T11:05:09.364Z,11.16
2018-12-01T11:06:09.335Z,11.16
2018-12-01T11:07:09.342Z,11.11
2018-12-01T11:08:09.350Z,11.05
2018-12-01T11:09:09.361Z,10.99
2018-12-01T11:10:09.370Z,11.12
2018-12-01T11:11:09.370Z,11.30
2018-12-01T11:12:09.378Z,11.41
2018-12-01T11:13:09.390Z,11.35
2018-12-01T11:14:09.405Z,11.16
2018-12-01T11:15:09.392Z,11.13
2018-12-01T11:17:09.425Z,11.02
2018-12-01T11:18:09.423Z,10.98
2018-12-01T11:19:09.434Z,11.11
2018-12-01T11:20:09.442Z,11.12
2018-12-01T11:21:09.450Z,11.21
2018-12-01T11:23:09.533Z,11.05
2018-12-01T11:24:09.472Z,11.09
2018-12-01T11:25:09.472Z,11.06
2018-12-01T11:26:09.482Z,11.05
2018-12-01T11:27:09.479Z,11.12
2018-12-01T11:28:09.493Z,11.08
2018-12-01T11:29:09.575Z,11.08
2018-12-01T11:30:09.506Z,11.16
2018-12-01T11:31:09.532Z,11.19
2018-12-01T11:33:09.538Z,11.13
2018-12-01T11:34:09.540Z,11.20
2018-12-01T11:35:09.551Z,11.03
2018-12-01T11:36:09.568Z,11.06
2018-12-01T11:37:09.583Z,11.03
2018-12-01T11:38:09.565Z,11.02
2018-12-01T11:39:09.575Z,10.98
2018-12-01T11:40:09.575Z,10.91
2018-12-01T11:41:09.596Z,11.01
2018-12-01T11:42:09.602Z,10.86
2018-12-01T11:43:09.601Z,11.02
2018-12-01T11:44:09.606Z,11.02
2018-12-01T11:45:09.629Z,10.99
2018-12-01T11:46:09.618Z,11.01
2018-12-01T11:47:09.621Z,10.98
2018-12-01T11:48:09.695Z,11.12
2018-12-01T11:49:09.677Z,11.17
2018-12-01T11:50:09.642Z,11.19
2018-12-01T11:51:09.654Z,11.21
2018-12-01T11:52:09.664Z,11.13
2018-12-01T11:53:09.695Z,11.20
2018-12-01T11:54:09.709Z,11.28
2018-12-01T11:55:09.685Z,11.19
2018-12-01T11:56:09.688Z,11.30
2018-12-01T11:57:09.718Z,11.24
2018-12-01T11:58:09.714Z,11.36
2018-12-01T11:59:09.707Z,11.42
2018-12-01T12:00:09.711Z,11.54
2018-12-01T12:02:09.736Z,11.56
2018-12-01T12:03:09.761Z,11.60
2018-12-01T12:06:09.757Z,11.41
2018-12-01T12:07:09.763Z,11.33
2018-12-01T12:08:09.764Z,11.38
2018-12-01T12:09:09.783Z,11.49
2018-12-01T12:10:09.789Z,11.39
2018-12-01T12:11:09.802Z,11.28
2018-12-01T12:12:09.816Z,11.33
2018-12-01T12:13:09.804Z,11.51
2018-12-01T12:14:09.817Z,11.48
2018-12-01T12:15:09.814Z,11.48
2018-12-01T12:16:09.867Z,11.51
2018-12-01T12:17:09.841Z,11.48
2018-12-01T12:18:09.845Z,11.42
2018-12-01T12:19:09.854Z,11.44
2018-12-01T12:20:09.853Z,11.53
2018-12-01T12:21:09.863Z,11.63
2018-12-01T12:22:09.886Z,11.60
2018-12-01T12:23:09.877Z,11.67
2018-12-01T12:24:09.885Z,11.67
2018-12-01T12:25:09.891Z,11.56
2018-12-01T12:26:09.901Z,11.57
2018-12-01T12:27:09.906Z,11.53
2018-12-01T12:28:09.932Z,11.60
2018-12-01T12:29:09.925Z,11.79
2018-12-01T12:30:09.925Z,11.78
2018-12-01T12:31:09.949Z,11.70
2018-12-01T12:32:09.951Z,11.74
2018-12-01T12:33:09.952Z,11.70
2018-12-01T12:34:09.978Z,11.74
2018-12-01T12:35:10.075Z,11.70
2018-12-01T12:36:10.026Z,11.78
2018-12-01T12:37:10.037Z,11.74
2018-12-01T12:38:10.023Z,11.64
2018-12-01T12:39:10.076Z,11.72
2018-12-01T12:40:10.063Z,11.67
2018-12-01T12:41:10.103Z,11.79
2018-12-01T12:42:10.058Z,11.67
2018-12-01T12:43:10.050Z,11.67
2018-12-01T12:44:10.069Z,11.57
2018-12-01T12:45:10.058Z,11.48
2018-12-01T12:46:10.074Z,11.53
2018-12-01T12:47:10.090Z,11.56
2018-12-01T12:48:10.084Z,11.48
2018-12-01T12:49:10.092Z,11.48
2018-12-01T12:50:10.107Z,11.46
2018-12-01T12:51:10.121Z,11.46
2018-12-01T12:52:10.928Z,11.54
2018-12-01T12:53:10.119Z,11.56
2018-12-01T12:54:10.143Z,11.53
2018-12-01T12:55:10.155Z,11.60
2018-12-01T12:57:10.142Z,11.49
2018-12-01T12:58:10.167Z,11.54
2018-12-01T12:59:10.177Z,11.64
2018-12-01T13:00:10.172Z,11.59
2018-12-01T13:01:10.206Z,11.70
2018-12-01T13:02:10.182Z,11.72
2018-12-01T13:03:10.203Z,11.69
2018-12-01T13:04:10.191Z,11.64
2018-12-01T13:05:10.214Z,11.67
2018-12-01T13:06:10.201Z,11.63
2018-12-01T13:07:10.216Z,11.63
2018-12-01T13:08:10.230Z,11.62
2018-12-01T13:09:10.226Z,11.63
2018-12-01T13:10:10.255Z,11.62
2018-12-01T13:11:10.256Z,11.59
2018-12-01T13:12:10.243Z,11.57
2018-12-01T13:13:10.267Z,11.60
2018-12-01T13:14:10.252Z,11.60
2018-12-01T13:15:10.281Z,11.60
2018-12-01T13:16:10.273Z,11.48
2018-12-01T13:17:10.275Z,11.49
2018-12-01T13:18:10.284Z,11.44
2018-12-01T13:19:10.292Z,11.33
2018-12-01T13:20:10.316Z,11.44
2018-12-01T13:21:10.303Z,11.39
2018-12-01T13:22:10.320Z,11.31
2018-12-01T13:23:10.316Z,11.30
2018-12-01T13:24:10.332Z,11.41
2018-12-01T13:25:10.328Z,11.42
2018-12-01T13:26:10.346Z,11.49
2018-12-01T13:27:10.357Z,11.54
2018-12-01T13:28:10.371Z,11.59
2018-12-01T13:29:10.385Z,11.48
2018-12-01T13:30:10.368Z,11.51
2018-12-01T13:31:10.381Z,11.48
2018-12-01T13:32:10.389Z,11.48
2018-12-01T13:33:10.404Z,11.46